sensor_id;sensor_type;location;lat;lon;timestamp;temperature;humidity
12901;DHT22;6518;50.930;5.344;2023-06-26T00:01:08;28.00;55.20
12901;DHT22;6518;50.930;5.344;2023-06-26T00:03:35;28.00;55.40
12901;DHT22;6518;50.930;5.344;2023-06-26T00:06:02;27.90;55.60
12901;DHT22;6518;50.930;5.344;2023-06-26T00:08:29;27.90;55.70
12901;DHT22;6518;50.930;5.344;2023-06-26T00:10:55;27.90;55.80
12901;DHT22;6518;50.930;5.344;2023-06-26T00:13:24;27.80;55.90
12901;DHT22;6518;50.930;5.344;2023-06-26T00:15:51;27.80;56.10
12901;DHT22;6518;50.930;5.344;2023-06-26T00:18:18;27.70;55.80
12901;DHT22;6518;50.930;5.344;2023-06-26T00:20:44;27.70;56.00
12901;DHT22;6518;50.930;5.344;2023-06-26T00:23:12;27.60;56.10
12901;DHT22;6518;50.930;5.344;2023-06-26T00:25:42;27.50;56.20
12901;DHT22;6518;50.930;5.344;2023-06-26T00:28:09;27.50;56.20
12901;DHT22;6518;50.930;5.344;2023-06-26T00:30:37;27.50;56.30
12901;DHT22;6518;50.930;5.344;2023-06-26T00:33:04;27.30;56.40
12901;DHT22;6518;50.930;5.344;2023-06-26T00:35:31;27.10;57.50
12901;DHT22;6518;50.930;5.344;2023-06-26T00:37:58;26.90;57.20
12901;DHT22;6518;50.930;5.344;2023-06-26T00:40:25;26.80;57.50
12901;DHT22;6518;50.930;5.344;2023-06-26T00:42:53;26.80;57.80
12901;DHT22;6518;50.930;5.344;2023-06-26T00:45:20;26.70;57.60
12901;DHT22;6518;50.930;5.344;2023-06-26T00:47:48;26.80;57.70
12901;DHT22;6518;50.930;5.344;2023-06-26T00:50:15;26.80;58.30
12901;DHT22;6518;50.930;5.344;2023-06-26T00:52:43;26.90;57.70
12901;DHT22;6518;50.930;5.344;2023-06-26T00:55:10;26.90;57.70
12901;DHT22;6518;50.930;5.344;2023-06-26T00:57:37;26.80;57.70
12901;DHT22;6518;50.930;5.344;2023-06-26T01:00:05;26.80;58.00
12901;DHT22;6518;50.930;5.344;2023-06-26T01:02:33;26.70;58.00
12901;DHT22;6518;50.930;5.344;2023-06-26T01:05:03;26.60;58.30
12901;DHT22;6518;50.930;5.344;2023-06-26T01:07:32;26.50;58.30
12901;DHT22;6518;50.930;5.344;2023-06-26T01:10:03;26.40;58.50
12901;DHT22;6518;50.930;5.344;2023-06-26T01:12:30;26.20;58.80
12901;DHT22;6518;50.930;5.344;2023-06-26T01:14:58;26.00;59.10
12901;DHT22;6518;50.930;5.344;2023-06-26T01:17:26;25.90;59.30
12901;DHT22;6518;50.930;5.344;2023-06-26T01:19:57;25.70;59.60
12901;DHT22;6518;50.930;5.344;2023-06-26T01:22:31;25.60;60.10
12901;DHT22;6518;50.930;5.344;2023-06-26T01:25:11;25.40;60.20
12901;DHT22;6518;50.930;5.344;2023-06-26T01:27:40;25.20;60.50
12901;DHT22;6518;50.930;5.344;2023-06-26T01:30:09;25.10;61.00
12901;DHT22;6518;50.930;5.344;2023-06-26T01:32:37;25.00;61.10
12901;DHT22;6518;50.930;5.344;2023-06-26T01:35:06;25.00;61.10
12901;DHT22;6518;50.930;5.344;2023-06-26T01:37:33;25.00;61.20
12901;DHT22;6518;50.930;5.344;2023-06-26T01:40:00;25.00;61.00
12901;DHT22;6518;50.930;5.344;2023-06-26T01:42:27;25.20;60.90
12901;DHT22;6518;50.930;5.344;2023-06-26T01:44:56;25.20;60.70
12901;DHT22;6518;50.930;5.344;2023-06-26T01:47:25;25.30;60.50
12901;DHT22;6518;50.930;5.344;2023-06-26T01:49:59;25.40;60.50
12901;DHT22;6518;50.930;5.344;2023-06-26T01:52:31;25.40;60.80
12901;DHT22;6518;50.930;5.344;2023-06-26T01:55:05;25.40;60.80
12901;DHT22;6518;50.930;5.344;2023-06-26T01:57:35;25.40;61.10
12901;DHT22;6518;50.930;5.344;2023-06-26T02:00:05;25.40;61.20
12901;DHT22;6518;50.930;5.344;2023-06-26T02:02:36;25.40;61.00
12901;DHT22;6518;50.930;5.344;2023-06-26T02:05:03;25.40;61.20
12901;DHT22;6518;50.930;5.344;2023-06-26T02:07:30;25.40;61.30
12901;DHT22;6518;50.930;5.344;2023-06-26T02:09:57;25.30;61.60
12901;DHT22;6518;50.930;5.344;2023-06-26T02:12:24;25.20;61.60
12901;DHT22;6518;50.930;5.344;2023-06-26T02:14:51;25.20;61.80
12901;DHT22;6518;50.930;5.344;2023-06-26T02:17:19;25.10;62.00
12901;DHT22;6518;50.930;5.344;2023-06-26T02:19:46;24.90;62.40
12901;DHT22;6518;50.930;5.344;2023-06-26T02:22:14;24.80;62.50
12901;DHT22;6518;50.930;5.344;2023-06-26T02:24:41;24.80;62.60
12901;DHT22;6518;50.930;5.344;2023-06-26T02:27:07;24.70;62.50
12901;DHT22;6518;50.930;5.344;2023-06-26T02:29:34;24.60;62.70
12901;DHT22;6518;50.930;5.344;2023-06-26T02:32:02;24.50;62.90
12901;DHT22;6518;50.930;5.344;2023-06-26T02:34:30;24.40;63.00
12901;DHT22;6518;50.930;5.344;2023-06-26T02:36:57;24.30;63.00
12901;DHT22;6518;50.930;5.344;2023-06-26T02:39:24;24.30;63.00
12901;DHT22;6518;50.930;5.344;2023-06-26T02:41:51;24.30;63.00
12901;DHT22;6518;50.930;5.344;2023-06-26T02:44:18;24.30;62.80
12901;DHT22;6518;50.930;5.344;2023-06-26T02:46:45;24.20;62.70
12901;DHT22;6518;50.930;5.344;2023-06-26T02:49:12;24.20;62.70
12901;DHT22;6518;50.930;5.344;2023-06-26T02:51:40;24.20;62.80
12901;DHT22;6518;50.930;5.344;2023-06-26T02:54:07;24.20;62.70
12901;DHT22;6518;50.930;5.344;2023-06-26T02:56:34;24.20;62.40
12901;DHT22;6518;50.930;5.344;2023-06-26T02:59:00;24.20;62.30
12901;DHT22;6518;50.930;5.344;2023-06-26T03:01:27;24.20;62.30
12901;DHT22;6518;50.930;5.344;2023-06-26T03:03:54;24.10;62.30
12901;DHT22;6518;50.930;5.344;2023-06-26T03:06:21;24.10;62.00
12901;DHT22;6518;50.930;5.344;2023-06-26T03:08:49;24.10;62.20
12901;DHT22;6518;50.930;5.344;2023-06-26T03:11:16;24.00;62.00
12901;DHT22;6518;50.930;5.344;2023-06-26T03:13:43;23.90;62.30
12901;DHT22;6518;50.930;5.344;2023-06-26T03:16:10;23.90;62.60
12901;DHT22;6518;50.930;5.344;2023-06-26T03:18:37;23.80;62.50
12901;DHT22;6518;50.930;5.344;2023-06-26T03:21:05;23.90;62.40
12901;DHT22;6518;50.930;5.344;2023-06-26T03:23:31;23.80;62.30
12901;DHT22;6518;50.930;5.344;2023-06-26T03:26:00;23.80;62.40
12901;DHT22;6518;50.930;5.344;2023-06-26T03:28:27;23.80;62.40
12901;DHT22;6518;50.930;5.344;2023-06-26T03:30:53;23.70;62.50
12901;DHT22;6518;50.930;5.344;2023-06-26T03:33:20;23.60;62.60
12901;DHT22;6518;50.930;5.344;2023-06-26T03:35:47;23.60;62.90
12901;DHT22;6518;50.930;5.344;2023-06-26T03:38:14;23.60;62.80
12901;DHT22;6518;50.930;5.344;2023-06-26T03:40:41;23.70;62.70
12901;DHT22;6518;50.930;5.344;2023-06-26T03:43:09;23.60;62.50
12901;DHT22;6518;50.930;5.344;2023-06-26T03:45:36;23.60;62.00
12901;DHT22;6518;50.930;5.344;2023-06-26T03:48:03;23.60;62.70
12901;DHT22;6518;50.930;5.344;2023-06-26T03:50:30;23.50;63.00
12901;DHT22;6518;50.930;5.344;2023-06-26T03:52:57;23.40;63.10
12901;DHT22;6518;50.930;5.344;2023-06-26T03:55:24;23.40;63.30
12901;DHT22;6518;50.930;5.344;2023-06-26T03:57:51;23.50;63.30
12901;DHT22;6518;50.930;5.344;2023-06-26T04:00:21;23.50;64.00
12901;DHT22;6518;50.930;5.344;2023-06-26T04:02:48;23.50;63.40
12901;DHT22;6518;50.930;5.344;2023-06-26T04:05:16;23.40;63.60
12901;DHT22;6518;50.930;5.344;2023-06-26T04:07:44;23.40;63.80
12901;DHT22;6518;50.930;5.344;2023-06-26T04:10:11;23.20;64.10
12901;DHT22;6518;50.930;5.344;2023-06-26T04:12:38;23.20;64.30
12901;DHT22;6518;50.930;5.344;2023-06-26T04:15:06;23.20;64.60
12901;DHT22;6518;50.930;5.344;2023-06-26T04:17:35;23.10;64.80
12901;DHT22;6518;50.930;5.344;2023-06-26T04:20:02;23.00;65.40
12901;DHT22;6518;50.930;5.344;2023-06-26T04:22:31;22.90;65.90
12901;DHT22;6518;50.930;5.344;2023-06-26T04:25:00;22.80;66.10
12901;DHT22;6518;50.930;5.344;2023-06-26T04:27:27;22.80;66.20
12901;DHT22;6518;50.930;5.344;2023-06-26T04:29:53;22.90;66.20
12901;DHT22;6518;50.930;5.344;2023-06-26T04:32:20;22.90;66.40
12901;DHT22;6518;50.930;5.344;2023-06-26T04:34:49;22.90;66.60
12901;DHT22;6518;50.930;5.344;2023-06-26T04:37:16;22.90;66.90
12901;DHT22;6518;50.930;5.344;2023-06-26T04:39:43;22.90;66.90
12901;DHT22;6518;50.930;5.344;2023-06-26T04:42:10;22.90;67.00
12901;DHT22;6518;50.930;5.344;2023-06-26T04:44:37;23.10;66.90
12901;DHT22;6518;50.930;5.344;2023-06-26T04:47:06;23.10;66.90
12901;DHT22;6518;50.930;5.344;2023-06-26T04:49:33;22.90;67.10
12901;DHT22;6518;50.930;5.344;2023-06-26T04:52:01;22.90;67.50
12901;DHT22;6518;50.930;5.344;2023-06-26T04:54:28;22.80;67.60
12901;DHT22;6518;50.930;5.344;2023-06-26T04:56:55;22.80;68.10
12901;DHT22;6518;50.930;5.344;2023-06-26T04:59:22;22.80;68.10
12901;DHT22;6518;50.930;5.344;2023-06-26T05:01:49;22.90;68.10
12901;DHT22;6518;50.930;5.344;2023-06-26T05:04:16;23.00;67.80
12901;DHT22;6518;50.930;5.344;2023-06-26T05:06:43;23.00;67.70
12901;DHT22;6518;50.930;5.344;2023-06-26T05:09:11;23.00;67.70
12901;DHT22;6518;50.930;5.344;2023-06-26T05:11:39;23.00;67.90
12901;DHT22;6518;50.930;5.344;2023-06-26T05:14:05;22.80;68.30
12901;DHT22;6518;50.930;5.344;2023-06-26T05:16:34;22.70;68.60
12901;DHT22;6518;50.930;5.344;2023-06-26T05:19:01;22.70;68.60
12901;DHT22;6518;50.930;5.344;2023-06-26T05:21:29;22.80;68.90
12901;DHT22;6518;50.930;5.344;2023-06-26T05:23:57;22.90;68.60
12901;DHT22;6518;50.930;5.344;2023-06-26T05:26:26;22.90;68.80
12901;DHT22;6518;50.930;5.344;2023-06-26T05:28:55;22.80;68.80
12901;DHT22;6518;50.930;5.344;2023-06-26T05:31:24;22.80;68.90
12901;DHT22;6518;50.930;5.344;2023-06-26T05:33:52;22.70;69.00
12901;DHT22;6518;50.930;5.344;2023-06-26T05:36:22;22.60;69.40
12901;DHT22;6518;50.930;5.344;2023-06-26T05:38:51;22.60;69.20
12901;DHT22;6518;50.930;5.344;2023-06-26T05:41:18;22.70;69.30
12901;DHT22;6518;50.930;5.344;2023-06-26T05:43:46;22.60;68.90
12901;DHT22;6518;50.930;5.344;2023-06-26T05:46:13;22.60;68.90
12901;DHT22;6518;50.930;5.344;2023-06-26T05:48:40;22.60;69.10
12901;DHT22;6518;50.930;5.344;2023-06-26T05:51:08;22.70;68.90
12901;DHT22;6518;50.930;5.344;2023-06-26T05:53:35;22.80;68.80
12901;DHT22;6518;50.930;5.344;2023-06-26T05:56:03;22.90;68.50
12901;DHT22;6518;50.930;5.344;2023-06-26T05:58:30;22.90;68.30
12901;DHT22;6518;50.930;5.344;2023-06-26T06:00:58;22.70;68.20
12901;DHT22;6518;50.930;5.344;2023-06-26T06:03:25;22.30;69.30
12901;DHT22;6518;50.930;5.344;2023-06-26T06:05:53;22.20;70.50
12901;DHT22;6518;50.930;5.344;2023-06-26T06:08:20;22.20;69.80
12901;DHT22;6518;50.930;5.344;2023-06-26T06:10:47;22.20;69.80
12901;DHT22;6518;50.930;5.344;2023-06-26T06:13:13;22.30;69.40
12901;DHT22;6518;50.930;5.344;2023-06-26T06:15:40;22.20;69.00
12901;DHT22;6518;50.930;5.344;2023-06-26T06:18:08;22.10;69.40
12901;DHT22;6518;50.930;5.344;2023-06-26T06:20:35;22.00;69.80
12901;DHT22;6518;50.930;5.344;2023-06-26T06:23:02;22.00;69.90
12901;DHT22;6518;50.930;5.344;2023-06-26T06:25:29;21.80;69.80
12901;DHT22;6518;50.930;5.344;2023-06-26T06:27:56;21.80;70.00
12901;DHT22;6518;50.930;5.344;2023-06-26T06:30:23;21.70;70.30
12901;DHT22;6518;50.930;5.344;2023-06-26T06:32:51;21.60;70.20
12901;DHT22;6518;50.930;5.344;2023-06-26T06:35:19;21.60;70.60
12901;DHT22;6518;50.930;5.344;2023-06-26T06:37:46;21.60;69.90
12901;DHT22;6518;50.930;5.344;2023-06-26T06:40:14;21.60;70.60
12901;DHT22;6518;50.930;5.344;2023-06-26T06:42:42;21.50;70.50
12901;DHT22;6518;50.930;5.344;2023-06-26T06:45:09;21.50;70.90
12901;DHT22;6518;50.930;5.344;2023-06-26T06:47:36;21.60;70.50
12901;DHT22;6518;50.930;5.344;2023-06-26T06:50:03;21.80;70.10
12901;DHT22;6518;50.930;5.344;2023-06-26T06:52:36;22.00;69.80
12901;DHT22;6518;50.930;5.344;2023-06-26T06:55:04;22.20;69.10
12901;DHT22;6518;50.930;5.344;2023-06-26T06:57:34;22.30;68.50
12901;DHT22;6518;50.930;5.344;2023-06-26T07:00:04;22.30;68.40
12901;DHT22;6518;50.930;5.344;2023-06-26T07:02:32;22.30;67.70
12901;DHT22;6518;50.930;5.344;2023-06-26T07:04:59;22.40;67.50
12901;DHT22;6518;50.930;5.344;2023-06-26T07:07:28;22.40;67.30
12901;DHT22;6518;50.930;5.344;2023-06-26T07:09:58;22.40;67.10
12901;DHT22;6518;50.930;5.344;2023-06-26T07:12:25;22.40;67.30
12901;DHT22;6518;50.930;5.344;2023-06-26T07:14:52;22.40;67.40
12901;DHT22;6518;50.930;5.344;2023-06-26T07:17:19;22.30;67.30
12901;DHT22;6518;50.930;5.344;2023-06-26T07:19:46;22.50;67.30
12901;DHT22;6518;50.930;5.344;2023-06-26T07:22:13;22.40;67.10
12901;DHT22;6518;50.930;5.344;2023-06-26T07:24:40;22.40;66.70
12901;DHT22;6518;50.930;5.344;2023-06-26T07:27:09;22.50;66.50
12901;DHT22;6518;50.930;5.344;2023-06-26T07:29:36;22.60;66.70
12901;DHT22;6518;50.930;5.344;2023-06-26T07:32:03;22.70;66.40
12901;DHT22;6518;50.930;5.344;2023-06-26T07:34:30;22.90;66.10
12901;DHT22;6518;50.930;5.344;2023-06-26T07:36:57;22.80;65.70
12901;DHT22;6518;50.930;5.344;2023-06-26T07:39:24;22.70;65.70
12901;DHT22;6518;50.930;5.344;2023-06-26T07:41:51;22.80;65.90
12901;DHT22;6518;50.930;5.344;2023-06-26T07:44:19;22.80;65.70
12901;DHT22;6518;50.930;5.344;2023-06-26T07:46:46;23.00;65.30
12901;DHT22;6518;50.930;5.344;2023-06-26T07:49:13;22.90;65.10
12901;DHT22;6518;50.930;5.344;2023-06-26T07:51:40;22.70;65.20
12901;DHT22;6518;50.930;5.344;2023-06-26T07:54:07;22.80;64.90
12901;DHT22;6518;50.930;5.344;2023-06-26T07:56:51;22.70;64.80
12901;DHT22;6518;50.930;5.344;2023-06-26T07:59:20;22.80;64.80
12901;DHT22;6518;50.930;5.344;2023-06-26T08:01:47;22.80;65.30
12901;DHT22;6518;50.930;5.344;2023-06-26T08:04:14;22.80;65.10
12901;DHT22;6518;50.930;5.344;2023-06-26T08:06:41;22.80;64.90
12901;DHT22;6518;50.930;5.344;2023-06-26T08:09:08;22.90;65.40
12901;DHT22;6518;50.930;5.344;2023-06-26T08:11:35;23.10;64.10
12901;DHT22;6518;50.930;5.344;2023-06-26T08:14:02;23.30;63.60
12901;DHT22;6518;50.930;5.344;2023-06-26T08:16:30;23.50;63.00
12901;DHT22;6518;50.930;5.344;2023-06-26T08:18:57;23.50;62.10
12901;DHT22;6518;50.930;5.344;2023-06-26T08:21:24;23.50;62.50
12901;DHT22;6518;50.930;5.344;2023-06-26T08:23:51;23.40;62.30
12901;DHT22;6518;50.930;5.344;2023-06-26T08:26:17;23.10;62.70
12901;DHT22;6518;50.930;5.344;2023-06-26T08:28:45;23.20;63.00
12901;DHT22;6518;50.930;5.344;2023-06-26T08:31:12;23.10;63.10
12901;DHT22;6518;50.930;5.344;2023-06-26T08:33:40;23.00;63.70
12901;DHT22;6518;50.930;5.344;2023-06-26T08:36:07;22.80;64.40
12901;DHT22;6518;50.930;5.344;2023-06-26T08:38:34;22.90;64.80
12901;DHT22;6518;50.930;5.344;2023-06-26T08:41:01;23.10;64.50
12901;DHT22;6518;50.930;5.344;2023-06-26T08:43:28;23.30;64.10
12901;DHT22;6518;50.930;5.344;2023-06-26T08:45:55;23.40;63.70
12901;DHT22;6518;50.930;5.344;2023-06-26T08:48:22;23.40;63.40
12901;DHT22;6518;50.930;5.344;2023-06-26T08:50:53;23.50;63.40
12901;DHT22;6518;50.930;5.344;2023-06-26T08:53:26;23.60;63.10
12901;DHT22;6518;50.930;5.344;2023-06-26T08:55:57;23.90;63.00
12901;DHT22;6518;50.930;5.344;2023-06-26T08:58:24;24.00;62.00
12901;DHT22;6518;50.930;5.344;2023-06-26T09:00:51;24.10;61.90
12901;DHT22;6518;50.930;5.344;2023-06-26T09:03:19;24.10;61.60
12901;DHT22;6518;50.930;5.344;2023-06-26T09:05:46;23.80;60.90
12901;DHT22;6518;50.930;5.344;2023-06-26T09:08:14;23.50;62.20
12901;DHT22;6518;50.930;5.344;2023-06-26T09:10:41;23.30;62.80
12901;DHT22;6518;50.930;5.344;2023-06-26T09:13:08;23.50;62.70
12901;DHT22;6518;50.930;5.344;2023-06-26T09:15:39;23.70;62.30
12901;DHT22;6518;50.930;5.344;2023-06-26T09:18:08;24.00;61.70
12901;DHT22;6518;50.930;5.344;2023-06-26T09:20:35;24.00;60.50
12901;DHT22;6518;50.930;5.344;2023-06-26T09:23:03;23.90;60.80
12901;DHT22;6518;50.930;5.344;2023-06-26T09:25:32;23.80;59.70
12901;DHT22;6518;50.930;5.344;2023-06-26T09:27:59;23.30;59.70
12901;DHT22;6518;50.930;5.344;2023-06-26T09:30:26;23.50;60.50
12901;DHT22;6518;50.930;5.344;2023-06-26T09:32:53;23.50;60.70
12901;DHT22;6518;50.930;5.344;2023-06-26T09:35:20;23.60;60.90
12901;DHT22;6518;50.930;5.344;2023-06-26T09:37:47;23.90;60.10
12901;DHT22;6518;50.930;5.344;2023-06-26T09:40:15;23.90;60.10
12901;DHT22;6518;50.930;5.344;2023-06-26T09:42:43;24.00;59.50
12901;DHT22;6518;50.930;5.344;2023-06-26T09:45:18;24.00;58.60
12901;DHT22;6518;50.930;5.344;2023-06-26T09:47:46;24.10;58.60
12901;DHT22;6518;50.930;5.344;2023-06-26T09:50:21;24.20;58.00
12901;DHT22;6518;50.930;5.344;2023-06-26T09:52:51;24.10;57.50
12901;DHT22;6518;50.930;5.344;2023-06-26T09:55:19;24.00;58.10
12901;DHT22;6518;50.930;5.344;2023-06-26T09:57:50;24.00;58.40
12901;DHT22;6518;50.930;5.344;2023-06-26T10:00:18;24.00;56.70
12901;DHT22;6518;50.930;5.344;2023-06-26T10:02:45;24.00;57.00
12901;DHT22;6518;50.930;5.344;2023-06-26T10:05:12;24.00;56.40
12901;DHT22;6518;50.930;5.344;2023-06-26T10:07:40;24.00;55.90
12901;DHT22;6518;50.930;5.344;2023-06-26T10:10:08;24.10;56.20
12901;DHT22;6518;50.930;5.344;2023-06-26T10:12:37;24.30;55.80
12901;DHT22;6518;50.930;5.344;2023-06-26T10:15:06;24.40;55.40
12901;DHT22;6518;50.930;5.344;2023-06-26T10:17:39;24.30;55.20
12901;DHT22;6518;50.930;5.344;2023-06-26T10:20:08;24.40;55.70
12901;DHT22;6518;50.930;5.344;2023-06-26T10:22:39;24.30;54.10
12901;DHT22;6518;50.930;5.344;2023-06-26T10:25:07;24.30;54.50
12901;DHT22;6518;50.930;5.344;2023-06-26T10:27:40;24.20;54.50
12901;DHT22;6518;50.930;5.344;2023-06-26T10:30:14;24.30;54.40
12901;DHT22;6518;50.930;5.344;2023-06-26T10:32:42;24.30;53.80
12901;DHT22;6518;50.930;5.344;2023-06-26T10:35:10;24.10;53.40
12901;DHT22;6518;50.930;5.344;2023-06-26T10:37:41;24.00;54.20
12901;DHT22;6518;50.930;5.344;2023-06-26T10:40:09;23.90;54.80
12901;DHT22;6518;50.930;5.344;2023-06-26T10:42:37;24.10;55.30
12901;DHT22;6518;50.930;5.344;2023-06-26T10:45:14;24.30;54.70
12901;DHT22;6518;50.930;5.344;2023-06-26T10:47:43;24.50;54.30
12901;DHT22;6518;50.930;5.344;2023-06-26T10:50:23;24.70;53.90
12901;DHT22;6518;50.930;5.344;2023-06-26T10:53:10;24.70;53.00
12901;DHT22;6518;50.930;5.344;2023-06-26T10:55:37;24.30;52.20
12901;DHT22;6518;50.930;5.344;2023-06-26T10:58:04;24.10;52.40
12901;DHT22;6518;50.930;5.344;2023-06-26T11:00:34;24.10;51.70
12901;DHT22;6518;50.930;5.344;2023-06-26T11:03:00;24.20;51.70
12901;DHT22;6518;50.930;5.344;2023-06-26T11:05:28;24.30;50.60
12901;DHT22;6518;50.930;5.344;2023-06-26T11:08:07;24.50;49.60
12901;DHT22;6518;50.930;5.344;2023-06-26T11:10:50;24.60;50.20
12901;DHT22;6518;50.930;5.344;2023-06-26T11:13:19;24.70;49.00
12901;DHT22;6518;50.930;5.344;2023-06-26T11:15:49;24.80;49.40
12901;DHT22;6518;50.930;5.344;2023-06-26T11:18:16;24.80;49.00
12901;DHT22;6518;50.930;5.344;2023-06-26T11:20:43;24.70;50.00
12901;DHT22;6518;50.930;5.344;2023-06-26T11:23:10;24.70;50.30
12901;DHT22;6518;50.930;5.344;2023-06-26T11:25:38;24.50;50.70
12901;DHT22;6518;50.930;5.344;2023-06-26T11:28:05;24.50;51.00
12901;DHT22;6518;50.930;5.344;2023-06-26T11:30:32;24.70;51.20
12901;DHT22;6518;50.930;5.344;2023-06-26T11:33:09;24.80;50.50
12901;DHT22;6518;50.930;5.344;2023-06-26T11:35:36;24.80;49.40
12901;DHT22;6518;50.930;5.344;2023-06-26T11:38:04;24.80;50.30
12901;DHT22;6518;50.930;5.344;2023-06-26T11:40:32;24.60;49.90
12901;DHT22;6518;50.930;5.344;2023-06-26T11:43:00;24.40;49.50
12901;DHT22;6518;50.930;5.344;2023-06-26T11:45:28;24.30;49.10
12901;DHT22;6518;50.930;5.344;2023-06-26T11:47:56;24.30;48.70
12901;DHT22;6518;50.930;5.344;2023-06-26T11:50:24;24.30;49.20
12901;DHT22;6518;50.930;5.344;2023-06-26T11:52:55;24.40;48.70
12901;DHT22;6518;50.930;5.344;2023-06-26T11:55:22;24.40;49.40
12901;DHT22;6518;50.930;5.344;2023-06-26T11:57:50;24.40;49.90
12901;DHT22;6518;50.930;5.344;2023-06-26T12:00:20;24.60;49.90
12901;DHT22;6518;50.930;5.344;2023-06-26T12:02:47;24.70;49.10
12901;DHT22;6518;50.930;5.344;2023-06-26T12:05:16;24.80;49.10
12901;DHT22;6518;50.930;5.344;2023-06-26T12:07:46;24.90;49.00
12901;DHT22;6518;50.930;5.344;2023-06-26T12:10:14;24.90;49.40
12901;DHT22;6518;50.930;5.344;2023-06-26T12:12:42;24.90;48.70
12901;DHT22;6518;50.930;5.344;2023-06-26T12:15:12;24.80;49.30
12901;DHT22;6518;50.930;5.344;2023-06-26T12:17:39;25.00;48.70
12901;DHT22;6518;50.930;5.344;2023-06-26T12:20:17;25.10;46.70
12901;DHT22;6518;50.930;5.344;2023-06-26T12:22:47;25.00;47.30
12901;DHT22;6518;50.930;5.344;2023-06-26T12:25:15;25.00;47.90
12901;DHT22;6518;50.930;5.344;2023-06-26T12:27:44;24.90;48.30
12901;DHT22;6518;50.930;5.344;2023-06-26T12:30:12;24.90;48.70
12901;DHT22;6518;50.930;5.344;2023-06-26T12:32:39;25.00;48.50
12901;DHT22;6518;50.930;5.344;2023-06-26T12:35:07;25.10;47.90
12901;DHT22;6518;50.930;5.344;2023-06-26T12:37:37;25.00;47.30
12901;DHT22;6518;50.930;5.344;2023-06-26T12:40:16;25.00;47.20
12901;DHT22;6518;50.930;5.344;2023-06-26T12:42:45;24.90;47.60
12901;DHT22;6518;50.930;5.344;2023-06-26T12:45:13;24.80;47.50
12901;DHT22;6518;50.930;5.344;2023-06-26T12:47:40;24.80;48.10
12901;DHT22;6518;50.930;5.344;2023-06-26T12:50:08;24.90;47.90
12901;DHT22;6518;50.930;5.344;2023-06-26T12:52:35;25.00;47.80
12901;DHT22;6518;50.930;5.344;2023-06-26T12:55:02;25.00;47.50
12901;DHT22;6518;50.930;5.344;2023-06-26T12:57:31;24.90;47.40
12901;DHT22;6518;50.930;5.344;2023-06-26T12:59:58;24.90;47.70
12901;DHT22;6518;50.930;5.344;2023-06-26T13:02:25;24.90;47.70
12901;DHT22;6518;50.930;5.344;2023-06-26T13:04:52;24.90;48.20
12901;DHT22;6518;50.930;5.344;2023-06-26T13:07:18;25.10;47.80
12901;DHT22;6518;50.930;5.344;2023-06-26T13:09:45;25.10;47.50
12901;DHT22;6518;50.930;5.344;2023-06-26T13:12:14;25.00;47.40
12901;DHT22;6518;50.930;5.344;2023-06-26T13:14:42;24.90;47.90
12901;DHT22;6518;50.930;5.344;2023-06-26T13:17:10;24.70;48.60
12901;DHT22;6518;50.930;5.344;2023-06-26T13:19:37;24.60;48.40
12901;DHT22;6518;50.930;5.344;2023-06-26T13:22:05;24.60;47.50
12901;DHT22;6518;50.930;5.344;2023-06-26T13:24:32;24.60;47.90
12901;DHT22;6518;50.930;5.344;2023-06-26T13:26:59;24.70;47.10
12901;DHT22;6518;50.930;5.344;2023-06-26T13:29:26;24.70;46.60
12901;DHT22;6518;50.930;5.344;2023-06-26T13:31:54;24.60;46.40
12901;DHT22;6518;50.930;5.344;2023-06-26T13:34:22;24.70;46.60
12901;DHT22;6518;50.930;5.344;2023-06-26T13:36:53;24.90;46.60
12901;DHT22;6518;50.930;5.344;2023-06-26T13:39:20;24.90;46.70
12901;DHT22;6518;50.930;5.344;2023-06-26T13:41:47;25.00;46.50
12901;DHT22;6518;50.930;5.344;2023-06-26T13:44:14;25.00;46.50
12901;DHT22;6518;50.930;5.344;2023-06-26T13:46:40;25.10;46.20
12901;DHT22;6518;50.930;5.344;2023-06-26T13:49:09;25.00;45.50
12901;DHT22;6518;50.930;5.344;2023-06-26T13:51:35;24.90;44.70
12901;DHT22;6518;50.930;5.344;2023-06-26T13:54:03;24.90;44.90
12901;DHT22;6518;50.930;5.344;2023-06-26T13:56:30;24.80;45.00
12901;DHT22;6518;50.930;5.344;2023-06-26T13:58:57;24.80;45.30
12901;DHT22;6518;50.930;5.344;2023-06-26T14:01:24;24.90;45.30
12901;DHT22;6518;50.930;5.344;2023-06-26T14:03:51;24.80;45.70
12901;DHT22;6518;50.930;5.344;2023-06-26T14:06:19;24.80;46.10
12901;DHT22;6518;50.930;5.344;2023-06-26T14:08:47;24.90;46.10
12901;DHT22;6518;50.930;5.344;2023-06-26T14:11:13;25.10;45.60
12901;DHT22;6518;50.930;5.344;2023-06-26T14:13:41;25.10;45.40
12901;DHT22;6518;50.930;5.344;2023-06-26T14:16:08;25.10;45.40
12901;DHT22;6518;50.930;5.344;2023-06-26T14:18:35;24.90;46.40
12901;DHT22;6518;50.930;5.344;2023-06-26T14:21:02;24.90;47.10
12901;DHT22;6518;50.930;5.344;2023-06-26T14:23:31;24.90;47.20
12901;DHT22;6518;50.930;5.344;2023-06-26T14:25:58;24.70;46.70
12901;DHT22;6518;50.930;5.344;2023-06-26T14:28:24;24.60;47.10
12901;DHT22;6518;50.930;5.344;2023-06-26T14:30:51;24.70;47.30
12901;DHT22;6518;50.930;5.344;2023-06-26T14:33:18;24.70;47.20
12901;DHT22;6518;50.930;5.344;2023-06-26T14:35:45;24.70;47.20
12901;DHT22;6518;50.930;5.344;2023-06-26T14:38:12;24.80;46.60
12901;DHT22;6518;50.930;5.344;2023-06-26T14:40:40;24.90;47.00
12901;DHT22;6518;50.930;5.344;2023-06-26T14:43:07;24.90;46.20
12901;DHT22;6518;50.930;5.344;2023-06-26T14:45:34;24.70;46.50
12901;DHT22;6518;50.930;5.344;2023-06-26T14:48:01;24.70;46.40
12901;DHT22;6518;50.930;5.344;2023-06-26T14:50:27;24.80;45.70
12901;DHT22;6518;50.930;5.344;2023-06-26T14:52:54;24.40;45.70
12901;DHT22;6518;50.930;5.344;2023-06-26T14:55:21;24.40;45.90
12901;DHT22;6518;50.930;5.344;2023-06-26T14:57:50;24.50;45.90
12901;DHT22;6518;50.930;5.344;2023-06-26T15:00:18;24.70;45.90
12901;DHT22;6518;50.930;5.344;2023-06-26T15:02:45;25.00;45.40
12901;DHT22;6518;50.930;5.344;2023-06-26T15:05:12;25.20;45.60
12901;DHT22;6518;50.930;5.344;2023-06-26T15:07:39;25.20;45.00
12901;DHT22;6518;50.930;5.344;2023-06-26T15:10:07;25.10;45.20
12901;DHT22;6518;50.930;5.344;2023-06-26T15:12:35;25.10;45.40
12901;DHT22;6518;50.930;5.344;2023-06-26T15:15:04;24.70;46.00
12901;DHT22;6518;50.930;5.344;2023-06-26T15:17:33;24.70;46.40
12901;DHT22;6518;50.930;5.344;2023-06-26T15:20:00;24.70;46.50
12901;DHT22;6518;50.930;5.344;2023-06-26T15:22:27;24.70;46.70
12901;DHT22;6518;50.930;5.344;2023-06-26T15:24:54;24.80;46.70
12901;DHT22;6518;50.930;5.344;2023-06-26T15:27:21;25.00;46.20
12901;DHT22;6518;50.930;5.344;2023-06-26T15:29:47;24.90;46.20
12901;DHT22;6518;50.930;5.344;2023-06-26T15:32:16;24.90;46.20
12901;DHT22;6518;50.930;5.344;2023-06-26T15:34:43;24.70;46.50
12901;DHT22;6518;50.930;5.344;2023-06-26T15:37:09;24.70;46.70
12901;DHT22;6518;50.930;5.344;2023-06-26T15:39:36;24.80;46.90
12901;DHT22;6518;50.930;5.344;2023-06-26T15:42:05;24.70;47.00
12901;DHT22;6518;50.930;5.344;2023-06-26T15:44:32;24.80;46.70
12901;DHT22;6518;50.930;5.344;2023-06-26T15:46:59;24.80;46.00
12901;DHT22;6518;50.930;5.344;2023-06-26T15:49:27;24.70;45.70